Time;durP1;ratioP1;P1;durP2;ratioP2;P2;SDS_P1;SDS_P2;PMS_P1;PMS_P2;Temp;Humidity;BMP_temperature;BMP_pressure;BME280_temperature;BME280_humidity;BME280_pressure;Samples;Min_cycle;Max_cycle;Signal;HPM_P1;HPM_P2
2023/08/25 00:01:22;;;;;;;14.88;9.20;;;;;;;;;;5049780;28;20048;-70
2023/08/25 00:03:48;;;;;;;16.60;9.48;;;;;;;;;;5050617;28;20135;-67
2023/08/25 00:06:15;;;;;;;27.17;10.85;;;;;;;;;;5050634;28;20049;-67
2023/08/25 00:08:41;;;;;;;17.48;9.05;;;;;;;;;;5050915;28;20059;-68
2023/08/25 00:11:10;;;;;;;18.13;8.63;;;;;;;;;;5049586;28;20056;-70
2023/08/25 00:13:37;;;;;;;19.30;9.60;;;;;;;;;;5050876;28;20136;-71
2023/08/25 00:16:05;;;;;;;18.25;8.60;;;;;;;;;;5049724;28;20053;-70
2023/08/25 00:18:32;;;;;;;15.15;8.25;;;;;;;;;;5050345;28;20064;-68
2023/08/25 00:20:58;;;;;;;19.73;8.35;;;;;;;;;;5049113;28;20065;-69
2023/08/25 00:23:25;;;;;;;17.77;8.82;;;;;;;;;;5050624;28;20055;-69
2023/08/25 00:25:53;;;;;;;19.40;9.13;;;;;;;;;;5050029;28;20048;-69
2023/08/25 00:28:21;;;;;;;12.75;7.78;;;;;;;;;;5050148;28;20488;-70
2023/08/25 00:30:49;;;;;;;14.20;7.75;;;;;;;;;;5049387;28;20410;-69
2023/08/25 00:33:15;;;;;;;16.65;8.02;;;;;;;;;;5049940;28;20148;-68
2023/08/25 00:35:42;;;;;;;16.67;9.02;;;;;;;;;;5050218;28;20047;-68
2023/08/25 00:38:09;;;;;;;12.35;8.25;;;;;;;;;;5049901;28;20052;-71
2023/08/25 00:40:36;;;;;;;15.88;9.75;;;;;;;;;;5049251;28;20045;-68
2023/08/25 00:43:03;;;;;;;18.17;10.95;;;;;;;;;;5049912;28;20041;-69
2023/08/25 00:45:33;;;;;;;17.80;10.90;;;;;;;;;;5049931;28;20061;-69
2023/08/25 00:48:00;;;;;;;16.15;10.43;;;;;;;;;;5050267;28;20049;-67
2023/08/25 00:50:28;;;;;;;17.90;10.68;;;;;;;;;;5049743;28;20059;-68
2023/08/25 00:52:55;;;;;;;18.55;10.55;;;;;;;;;;5049887;28;20510;-67
2023/08/25 00:55:22;;;;;;;26.83;10.48;;;;;;;;;;5050370;28;20509;-68
2023/08/25 00:57:49;;;;;;;14.77;10.63;;;;;;;;;;5049677;28;20056;-67
2023/08/25 01:00:16;;;;;;;20.83;10.27;;;;;;;;;;5048826;28;20051;-71
2023/08/25 01:02:44;;;;;;;18.58;10.55;;;;;;;;;;5049814;28;20056;-69
2023/08/25 01:05:11;;;;;;;16.92;10.80;;;;;;;;;;5049957;28;20041;-69
2023/08/25 01:07:37;;;;;;;20.20;10.80;;;;;;;;;;5049708;28;20052;-70
2023/08/25 01:10:05;;;;;;;18.95;10.77;;;;;;;;;;5048846;28;20053;-69
2023/08/25 01:12:40;;;;;;;19.38;11.10;;;;;;;;;;5049956;28;20055;-71
2023/08/25 01:15:13;;;;;;;16.92;10.52;;;;;;;;;;5049870;28;20402;-69
2023/08/25 01:17:46;;;;;;;17.13;10.30;;;;;;;;;;5054188;28;20045;-68
2023/08/25 01:20:15;;;;;;;21.10;10.80;;;;;;;;;;5052526;28;20552;-70
2023/08/25 01:22:52;;;;;;;24.27;10.63;;;;;;;;;;5054022;28;20461;-71
2023/08/25 01:25:25;;;;;;;21.30;9.73;;;;;;;;;;5052883;28;20055;-70
2023/08/25 01:27:51;;;;;;;17.15;9.48;;;;;;;;;;5053999;28;20060;-69
2023/08/25 01:30:18;;;;;;;12.32;7.80;;;;;;;;;;5052602;28;20131;-70
2023/08/25 01:32:45;;;;;;;16.40;7.88;;;;;;;;;;5054040;28;20108;-69
2023/08/25 01:35:14;;;;;;;11.23;7.40;;;;;;;;;;5052975;28;20049;-68
2023/08/25 01:37:48;;;;;;;11.00;7.85;;;;;;;;;;5053413;28;20395;-68
2023/08/25 01:40:21;;;;;;;13.43;7.70;;;;;;;;;;5052514;28;20406;-68
2023/08/25 01:42:51;;;;;;;15.20;9.50;;;;;;;;;;5053735;28;20045;-68
2023/08/25 01:45:19;;;;;;;14.95;10.10;;;;;;;;;;5053477;28;20388;-68
2023/08/25 01:47:47;;;;;;;17.15;10.80;;;;;;;;;;5053547;28;20049;-68
2023/08/25 01:50:16;;;;;;;19.27;11.63;;;;;;;;;;5051904;28;20486;-68
2023/08/25 01:52:43;;;;;;;18.25;10.63;;;;;;;;;;5053794;28;20483;-68
2023/08/25 01:55:09;;;;;;;16.98;10.00;;;;;;;;;;5053059;28;20049;-68
2023/08/25 01:57:36;;;;;;;17.85;10.35;;;;;;;;;;5053422;28;20047;-68
2023/08/25 02:00:05;;;;;;;17.05;9.98;;;;;;;;;;5052342;28;20045;-69
2023/08/25 02:02:32;;;;;;;21.73;9.70;;;;;;;;;;5053105;28;20094;-69
2023/08/25 02:04:58;;;;;;;17.90;10.38;;;;;;;;;;5052777;28;20056;-68
2023/08/25 02:07:25;;;;;;;25.17;10.90;;;;;;;;;;5052829;28;20409;-71
2023/08/25 02:09:53;;;;;;;26.85;11.02;;;;;;;;;;5052328;28;20053;-69
2023/08/25 02:12:20;;;;;;;20.13;11.52;;;;;;;;;;5052753;28;20045;-69
2023/08/25 02:14:46;;;;;;;18.42;10.90;;;;;;;;;;5052965;28;20048;-68
2023/08/25 02:17:14;;;;;;;18.52;11.38;;;;;;;;;;5052173;28;20060;-69
2023/08/25 02:19:40;;;;;;;18.65;8.13;;;;;;;;;;5052114;28;20049;-68
2023/08/25 02:22:07;;;;;;;16.52;7.15;;;;;;;;;;5052230;28;20045;-69
2023/08/25 02:24:34;;;;;;;19.33;7.47;;;;;;;;;;5052875;28;20045;-70
2023/08/25 02:27:00;;;;;;;14.40;7.95;;;;;;;;;;5051925;28;20136;-68
2023/08/25 02:29:27;;;;;;;19.48;7.68;;;;;;;;;;5052319;28;20049;-70
2023/08/25 02:31:54;;;;;;;19.95;8.35;;;;;;;;;;5051645;28;20419;-68
2023/08/25 02:34:23;;;;;;;16.15;7.28;;;;;;;;;;5052652;28;20087;-68
2023/08/25 02:36:49;;;;;;;13.65;8.15;;;;;;;;;;5052255;28;20494;-68
2023/08/25 02:39:16;;;;;;;15.73;7.70;;;;;;;;;;5052296;28;20048;-68
2023/08/25 02:41:42;;;;;;;25.55;8.75;;;;;;;;;;5051598;28;20418;-69
2023/08/25 02:44:09;;;;;;;14.93;9.07;;;;;;;;;;5051912;28;20499;-69
2023/08/25 02:46:37;;;;;;;18.08;9.05;;;;;;;;;;5051951;28;20055;-68
2023/08/25 02:49:03;;;;;;;19.77;7.95;;;;;;;;;;5052052;28;20052;-68
2023/08/25 02:51:31;;;;;;;16.50;8.98;;;;;;;;;;5052007;28;20053;-68
2023/08/25 02:53:58;;;;;;;16.63;9.80;;;;;;;;;;5051931;28;20418;-68
2023/08/25 02:56:24;;;;;;;21.00;9.43;;;;;;;;;;5051780;28;20052;-68
2023/08/25 02:58:51;;;;;;;16.73;10.05;;;;;;;;;;5051565;28;20501;-69
2023/08/25 03:01:17;;;;;;;22.83;10.40;;;;;;;;;;5051472;28;20048;-69
2023/08/25 03:03:44;;;;;;;18.58;10.68;;;;;;;;;;5051900;28;20055;-68
2023/08/25 03:06:11;;;;;;;19.30;10.93;;;;;;;;;;5052497;28;20044;-71
2023/08/25 03:08:39;;;;;;;18.38;10.60;;;;;;;;;;5051652;28;20355;-68
2023/08/25 03:11:06;;;;;;;21.05;11.18;;;;;;;;;;5051195;28;20139;-71
2023/08/25 03:13:32;;;;;;;20.23;11.07;;;;;;;;;;5051237;28;20045;-69
2023/08/25 03:16:01;;;;;;;22.15;10.68;;;;;;;;;;5051393;28;20491;-69
2023/08/25 03:18:28;;;;;;;21.25;10.48;;;;;;;;;;5051987;28;20052;-68
2023/08/25 03:20:55;;;;;;;21.00;11.18;;;;;;;;;;5050735;28;20477;-68
2023/08/25 03:23:22;;;;;;;20.92;9.93;;;;;;;;;;5051845;28;20147;-69
2023/08/25 03:25:50;;;;;;;15.23;9.57;;;;;;;;;;5051175;28;20061;-68
2023/08/25 03:28:16;;;;;;;17.58;8.95;;;;;;;;;;5051429;28;20041;-68
2023/08/25 03:30:43;;;;;;;27.27;8.80;;;;;;;;;;5050494;28;20045;-70
2023/08/25 03:33:09;;;;;;;12.85;8.30;;;;;;;;;;5051523;28;20053;-68
2023/08/25 03:35:36;;;;;;;16.45;8.55;;;;;;;;;;5050661;28;20482;-70
2023/08/25 03:38:04;;;;;;;13.30;8.73;;;;;;;;;;5051115;28;20051;-68
2023/08/25 03:40:31;;;;;;;13.70;8.48;;;;;;;;;;5049775;28;20080;-69
2023/08/25 03:42:59;;;;;;;14.63;8.77;;;;;;;;;;5051504;28;20491;-68
2023/08/25 03:45:25;;;;;;;12.75;8.57;;;;;;;;;;5050907;28;20479;-69
2023/08/25 03:47:52;;;;;;;13.82;8.95;;;;;;;;;;5051005;28;20041;-68
2023/08/25 03:50:20;;;;;;;13.93;8.85;;;;;;;;;;5050098;28;20049;-69
2023/08/25 03:52:49;;;;;;;15.70;9.43;;;;;;;;;;5050732;28;20056;-69
2023/08/25 03:55:16;;;;;;;13.25;8.73;;;;;;;;;;5050796;28;20049;-68
2023/08/25 03:57:43;;;;;;;13.18;8.63;;;;;;;;;;5050918;28;20482;-70
2023/08/25 04:00:12;;;;;;;12.15;7.85;;;;;;;;;;5050157;28;20051;-69
2023/08/25 04:02:39;;;;;;;13.02;7.97;;;;;;;;;;5050841;28;20319;-68
2023/08/25 04:05:06;;;;;;;12.70;8.10;;;;;;;;;;5050842;28;20045;-68
2023/08/25 04:07:33;;;;;;;12.82;7.53;;;;;;;;;;5049922;28;20049;-71
2023/08/25 04:09:59;;;;;;;9.60;7.28;;;;;;;;;;5049895;28;20052;-68
2023/08/25 04:12:26;;;;;;;11.27;7.43;;;;;;;;;;5050580;28;20516;-68
2023/08/25 04:14:52;;;;;;;10.60;6.78;;;;;;;;;;5050767;28;20052;-68
2023/08/25 04:17:20;;;;;;;11.05;7.60;;;;;;;;;;5050186;28;20056;-70
2023/08/25 04:22:14;;;;;;;11.38;7.82;;;;;;;;;;4989022;28;20046;-68
2023/08/25 04:24:41;;;;;;;14.48;8.85;;;;;;;;;;4991652;28;20061;-68
2023/08/25 04:27:07;;;;;;;11.85;8.18;;;;;;;;;;4990965;28;20042;-68
2023/08/25 04:29:34;;;;;;;10.60;7.15;;;;;;;;;;4990351;28;20050;-68
2023/08/25 04:32:01;;;;;;;13.23;7.60;;;;;;;;;;4991144;28;20506;-68
2023/08/25 04:34:29;;;;;;;12.20;7.80;;;;;;;;;;4990603;28;20050;-68
2023/08/25 04:36:55;;;;;;;13.15;8.45;;;;;;;;;;4990649;28;20052;-68
2023/08/25 04:39:22;;;;;;;12.95;8.57;;;;;;;;;;4990725;28;20077;-68
2023/08/25 04:41:48;;;;;;;16.23;8.60;;;;;;;;;;4990292;28;20050;-68
2023/08/25 04:44:15;;;;;;;20.23;9.40;;;;;;;;;;4990559;28;20050;-68
2023/08/25 04:46:42;;;;;;;20.58;10.32;;;;;;;;;;4990606;28;20416;-68
2023/08/25 04:49:10;;;;;;;17.75;9.73;;;;;;;;;;4990258;28;20516;-68
2023/08/25 04:51:39;;;;;;;22.65;11.80;;;;;;;;;;4989889;28;20054;-68
2023/08/25 04:54:05;;;;;;;25.73;11.82;;;;;;;;;;4990552;28;20057;-68
2023/08/25 04:56:32;;;;;;;19.35;10.95;;;;;;;;;;4990515;28;20053;-68
2023/08/25 04:58:59;;;;;;;21.10;11.38;;;;;;;;;;4990329;28;20050;-68
2023/08/25 05:01:25;;;;;;;20.50;11.23;;;;;;;;;;4989916;28;20050;-68
2023/08/25 05:03:52;;;;;;;20.92;11.52;;;;;;;;;;4990657;28;20042;-68
2023/08/25 05:06:18;;;;;;;21.40;11.32;;;;;;;;;;4990057;28;20053;-68
2023/08/25 05:08:47;;;;;;;18.92;10.00;;;;;;;;;;4990729;28;20508;-68
2023/08/25 05:11:14;;;;;;;17.98;11.38;;;;;;;;;;4989513;28;20042;-68
2023/08/25 05:13:41;;;;;;;16.92;10.45;;;;;;;;;;4990663;28;20105;-68
2023/08/25 05:16:08;;;;;;;16.42;10.88;;;;;;;;;;4990215;28;20046;-68
2023/08/25 05:18:35;;;;;;;15.57;10.98;;;;;;;;;;4990472;28;20053;-68
2023/08/25 05:21:02;;;;;;;17.13;11.13;;;;;;;;;;4989592;28;20050;-68
2023/08/25 05:23:29;;;;;;;18.73;11.65;;;;;;;;;;4990791;28;20404;-68
2023/08/25 05:25:57;;;;;;;16.52;11.40;;;;;;;;;;4990063;28;20453;-68
2023/08/25 05:28:23;;;;;;;17.65;11.40;;;;;;;;;;4990559;28;20060;-68
2023/08/25 05:30:50;;;;;;;20.95;11.93;;;;;;;;;;4989659;28;20054;-68
2023/08/25 05:33:16;;;;;;;23.00;12.07;;;;;;;;;;4990014;28;20046;-68
2023/08/25 05:35:43;;;;;;;19.15;12.00;;;;;;;;;;4989800;28;20054;-68
2023/08/25 05:38:09;;;;;;;19.20;12.70;;;;;;;;;;4990573;28;20055;-68
2023/08/25 05:40:36;;;;;;;20.25;12.38;;;;;;;;;;4989536;28;20046;-68
2023/08/25 05:43:04;;;;;;;22.73;12.75;;;;;;;;;;4989984;28;20046;-68
2023/08/25 05:45:31;;;;;;;21.80;12.90;;;;;;;;;;4989982;28;20427;-68
2023/08/25 05:47:57;;;;;;;22.83;13.25;;;;;;;;;;4990165;28;20047;-68
2023/08/25 05:50:24;;;;;;;18.92;12.05;;;;;;;;;;4989888;28;20050;-68
2023/08/25 05:52:53;;;;;;;22.60;13.38;;;;;;;;;;4989830;28;20054;-68
2023/08/25 05:55:20;;;;;;;22.60;13.93;;;;;;;;;;4990120;28;20042;-68
2023/08/25 05:57:46;;;;;;;23.70;13.15;;;;;;;;;;4989668;28;20050;-68
2023/08/25 06:00:15;;;;;;;21.95;13.30;;;;;;;;;;4989708;28;20057;-68
2023/08/25 06:02:42;;;;;;;22.83;13.05;;;;;;;;;;4992454;28;20050;-68
2023/08/25 06:05:09;;;;;;;22.35;13.63;;;;;;;;;;4993485;28;20050;-68
2023/08/25 06:07:35;;;;;;;19.98;13.40;;;;;;;;;;4993552;28;20496;-68
2023/08/25 06:10:02;;;;;;;22.25;13.32;;;;;;;;;;4992924;28;20049;-68
2023/08/25 06:12:29;;;;;;;19.25;12.93;;;;;;;;;;4993673;28;20042;-68
2023/08/25 06:14:55;;;;;;;22.10;13.80;;;;;;;;;;4993464;28;20057;-68
2023/08/25 06:17:23;;;;;;;20.73;13.50;;;;;;;;;;4993450;28;20046;-68
2023/08/25 06:19:50;;;;;;;17.50;12.75;;;;;;;;;;4988904;28;20058;-71
2023/08/25 06:22:16;;;;;;;20.17;13.27;;;;;;;;;;4981223;28;20065;-70
2023/08/25 06:24:43;;;;;;;16.98;12.43;;;;;;;;;;4992317;28;20053;-71
2023/08/25 06:27:10;;;;;;;17.00;12.32;;;;;;;;;;4992629;28;20046;-71
2023/08/25 06:29:36;;;;;;;17.15;11.27;;;;;;;;;;4991596;28;20054;-71
2023/08/25 06:32:03;;;;;;;18.05;10.82;;;;;;;;;;4991667;28;20056;-71
2023/08/25 06:34:31;;;;;;;19.52;12.32;;;;;;;;;;4991649;28;20085;-71
2023/08/25 06:36:57;;;;;;;17.73;11.95;;;;;;;;;;4992171;28;20411;-70
2023/08/25 06:39:24;;;;;;;14.98;10.77;;;;;;;;;;4992214;28;20407;-71
2023/08/25 06:41:50;;;;;;;13.82;11.30;;;;;;;;;;4984437;28;20061;-71
2023/08/25 06:44:17;;;;;;;12.02;10.00;;;;;;;;;;4991829;28;20046;-71
2023/08/25 06:46:43;;;;;;;14.88;10.95;;;;;;;;;;4991261;28;20078;-71
2023/08/25 06:49:11;;;;;;;12.77;9.90;;;;;;;;;;4992583;28;20046;-71
2023/08/25 06:51:39;;;;;;;12.95;9.63;;;;;;;;;;4991417;28;20108;-67
2023/08/25 06:54:06;;;;;;;10.73;9.23;;;;;;;;;;4991488;28;20424;-68
2023/08/25 06:56:32;;;;;;;13.27;9.82;;;;;;;;;;4991965;28;20052;-67
2023/08/25 06:58:59;;;;;;;10.93;9.45;;;;;;;;;;4991504;28;20060;-67
2023/08/25 07:01:25;;;;;;;11.32;9.02;;;;;;;;;;4990703;28;20056;-68
2023/08/25 07:03:52;;;;;;;10.82;8.60;;;;;;;;;;4991993;28;20137;-67
2023/08/25 07:06:18;;;;;;;10.82;9.05;;;;;;;;;;4992030;28;20046;-68
2023/08/25 07:08:46;;;;;;;11.05;9.25;;;;;;;;;;4991985;28;20050;-68
2023/08/25 07:11:13;;;;;;;11.85;9.07;;;;;;;;;;4984210;28;20056;-67
2023/08/25 07:13:39;;;;;;;10.38;8.63;;;;;;;;;;4989980;28;20054;-67
2023/08/25 07:16:06;;;;;;;11.00;8.88;;;;;;;;;;4989827;28;20050;-67
2023/08/25 07:18:33;;;;;;;10.10;8.73;;;;;;;;;;4989302;28;20076;-67
2023/08/25 07:21:03;;;;;;;13.00;8.65;;;;;;;;;;4989285;28;20054;-67
2023/08/25 07:23:30;;;;;;;10.40;8.18;;;;;;;;;;4991743;28;20057;-67
2023/08/25 07:25:58;;;;;;;11.35;8.15;;;;;;;;;;4991852;28;20053;-67
2023/08/25 07:28:24;;;;;;;10.93;7.95;;;;;;;;;;4986154;28;20046;-68
2023/08/25 07:30:51;;;;;;;10.63;7.40;;;;;;;;;;4990183;28;20042;-67
2023/08/25 07:33:18;;;;;;;13.20;8.20;;;;;;;;;;4990953;28;20038;-68
2023/08/25 07:35:45;;;;;;;10.13;7.70;;;;;;;;;;4990097;28;20244;-67
2023/08/25 07:38:11;;;;;;;11.30;7.55;;;;;;;;;;4990858;28;20046;-67
2023/08/25 07:40:38;;;;;;;10.05;6.70;;;;;;;;;;4988502;28;20415;-67
2023/08/25 07:43:06;;;;;;;7.68;6.82;;;;;;;;;;4986691;28;20050;-67
2023/08/25 07:45:33;;;;;;;8.10;6.68;;;;;;;;;;4976167;28;20046;-68
2023/08/25 07:48:01;;;;;;;8.43;6.40;;;;;;;;;;4985921;28;20057;-67
2023/08/25 07:50:28;;;;;;;10.90;6.43;;;;;;;;;;4987146;28;20050;-68
2023/08/25 07:52:55;;;;;;;8.15;6.75;;;;;;;;;;4970265;28;20047;-67
2023/08/25 07:55:22;;;;;;;10.45;5.75;;;;;;;;;;4968773;28;20047;-67
2023/08/25 07:57:49;;;;;;;6.20;5.55;;;;;;;;;;4976263;28;20073;-67
2023/08/25 08:00:19;;;;;;;12.23;6.30;;;;;;;;;;4986354;28;20053;-67
2023/08/25 08:02:47;;;;;;;7.43;5.80;;;;;;;;;;4987144;28;20046;-67
2023/08/25 08:05:14;;;;;;;9.32;5.95;;;;;;;;;;4989064;28;20543;-68
2023/08/25 08:07:42;;;;;;;7.78;5.78;;;;;;;;;;4989353;28;20068;-68
2023/08/25 08:10:09;;;;;;;8.93;5.60;;;;;;;;;;4988437;28;20588;-67
2023/08/25 08:12:36;;;;;;;7.30;5.95;;;;;;;;;;4981666;28;20060;-67
2023/08/25 08:15:04;;;;;;;6.20;5.53;;;;;;;;;;4988675;28;20047;-68
2023/08/25 08:17:33;;;;;;;5.68;5.07;;;;;;;;;;4986624;28;20077;-67
2023/08/25 08:20:00;;;;;;;7.22;5.07;;;;;;;;;;4968548;28;20492;-67
2023/08/25 08:22:27;;;;;;;6.88;5.40;;;;;;;;;;4972552;28;20415;-68
2023/08/25 08:24:54;;;;;;;5.57;4.75;;;;;;;;;;4988404;28;20109;-68
2023/08/25 08:27:21;;;;;;;4.70;4.30;;;;;;;;;;4988362;28;20128;-67
2023/08/25 08:29:48;;;;;;;6.18;4.80;;;;;;;;;;4979807;28;20053;-67
2023/08/25 08:32:15;;;;;;;5.57;4.60;;;;;;;;;;4988692;28;20291;-68
2023/08/25 08:34:43;;;;;;;8.02;5.10;;;;;;;;;;4989707;28;20145;-67
2023/08/25 08:37:09;;;;;;;5.60;4.88;;;;;;;;;;4988632;28;20053;-68
2023/08/25 08:39:37;;;;;;;4.90;4.35;;;;;;;;;;4988151;28;20130;-68
2023/08/25 08:42:07;;;;;;;5.68;4.57;;;;;;;;;;4972515;28;20531;-68
2023/08/25 08:44:36;;;;;;;7.50;4.70;;;;;;;;;;4988264;28;20057;-68
2023/08/25 08:47:04;;;;;;;7.57;4.93;;;;;;;;;;4987587;28;20081;-68
2023/08/25 08:49:33;;;;;;;5.25;4.13;;;;;;;;;;4973097;28;20505;-67
2023/08/25 08:52:03;;;;;;;7.57;4.55;;;;;;;;;;4969193;28;20485;-67
2023/08/25 08:54:32;;;;;;;9.40;4.50;;;;;;;;;;4987491;28;20169;-68
2023/08/25 08:57:00;;;;;;;5.07;4.57;;;;;;;;;;4982308;28;20050;-68
2023/08/25 08:59:27;;;;;;;7.13;4.85;;;;;;;;;;4987660;28;20046;-67
2023/08/25 09:01:54;;;;;;;5.13;4.40;;;;;;;;;;4981855;28;20137;-68
2023/08/25 09:04:21;;;;;;;5.85;3.80;;;;;;;;;;4989107;28;20122;-68
2023/08/25 09:06:51;;;;;;;5.60;3.92;;;;;;;;;;4988446;28;20227;-68
2023/08/25 09:09:20;;;;;;;6.15;3.47;;;;;;;;;;4989458;28;20053;-68
2023/08/25 09:11:46;;;;;;;7.15;3.60;;;;;;;;;;4978372;28;20050;-69
2023/08/25 09:14:13;;;;;;;3.55;2.95;;;;;;;;;;4986026;28;20433;-69
2023/08/25 09:16:40;;;;;;;4.60;2.65;;;;;;;;;;4986438;28;20053;-69
2023/08/25 09:19:06;;;;;;;5.43;2.83;;;;;;;;;;4986523;28;20043;-68
2023/08/25 09:21:34;;;;;;;4.18;2.90;;;;;;;;;;4988208;28;20509;-69
2023/08/25 09:24:03;;;;;;;4.53;3.03;;;;;;;;;;4989247;28;20051;-69
2023/08/25 09:26:36;;;;;;;3.47;2.90;;;;;;;;;;4978536;28;20047;-68
2023/08/25 09:29:03;;;;;;;3.90;2.78;;;;;;;;;;4983298;28;20069;-68
2023/08/25 09:31:32;;;;;;;3.25;2.50;;;;;;;;;;4986604;28;20051;-69
2023/08/25 09:34:04;;;;;;;6.25;3.20;;;;;;;;;;4989289;28;20428;-69
2023/08/25 09:36:31;;;;;;;4.18;2.65;;;;;;;;;;4984370;28;20206;-68
2023/08/25 09:38:58;;;;;;;3.83;2.67;;;;;;;;;;4993102;28;20101;-68
2023/08/25 09:41:25;;;;;;;3.03;2.58;;;;;;;;;;4985509;28;20046;-68
2023/08/25 09:43:56;;;;;;;4.38;2.78;;;;;;;;;;4973891;28;20409;-68
2023/08/25 09:46:28;;;;;;;5.20;2.55;;;;;;;;;;4992822;28;20061;-68
2023/08/25 09:49:01;;;;;;;3.40;2.53;;;;;;;;;;4991090;28;20058;-68
2023/08/25 09:51:30;;;;;;;5.63;2.70;;;;;;;;;;4991698;28;20550;-68
2023/08/25 09:53:58;;;;;;;6.93;2.22;;;;;;;;;;4992404;28;20046;-68
2023/08/25 09:56:25;;;;;;;3.55;2.50;;;;;;;;;;4969388;28;20054;-68
2023/08/25 09:58:54;;;;;;;3.72;2.70;;;;;;;;;;4991873;28;20129;-68
2023/08/25 10:01:21;;;;;;;5.28;2.70;;;;;;;;;;4988536;28;20389;-68
2023/08/25 10:03:48;;;;;;;6.63;2.50;;;;;;;;;;4982005;28;20064;-68
2023/08/25 10:06:15;;;;;;;5.15;3.13;;;;;;;;;;4979788;28;20105;-68
2023/08/25 10:08:43;;;;;;;4.35;2.60;;;;;;;;;;4992041;28;20042;-68
2023/08/25 10:11:11;;;;;;;4.68;3.30;;;;;;;;;;4990033;28;20125;-68
2023/08/25 10:13:39;;;;;;;4.43;2.35;;;;;;;;;;4990496;28;20046;-68
2023/08/25 10:16:10;;;;;;;3.72;2.75;;;;;;;;;;4991966;28;20078;-68
2023/08/25 10:18:39;;;;;;;;;;;;;;;;;;4982360;28;20266;-69
2023/08/25 10:21:07;;;;;;;3.83;2.70;;;;;;;;;;5019315;22;19943;-65
2023/08/25 10:23:36;;;;;;;3.60;2.72;;;;;;;;;;5030468;28;20368;-67
2023/08/25 10:26:04;;;;;;;4.03;3.00;;;;;;;;;;5030805;28;20047;-65
2023/08/25 10:28:32;;;;;;;6.95;3.00;;;;;;;;;;5022055;28;20053;-64
2023/08/25 10:30:59;;;;;;;4.20;2.80;;;;;;;;;;5030060;28;20045;-66
2023/08/25 10:33:27;;;;;;;2.80;2.53;;;;;;;;;;5031056;28;20410;-65
2023/08/25 10:35:55;;;;;;;4.45;3.05;;;;;;;;;;5030655;28;20038;-67
2023/08/25 10:38:39;;;;;;;3.78;2.67;;;;;;;;;;5030695;28;20055;-66
2023/08/25 10:41:14;;;;;;;5.25;2.90;;;;;;;;;;5029671;28;20045;-67
2023/08/25 10:43:45;;;;;;;7.00;3.63;;;;;;;;;;5030039;28;20499;-67
2023/08/25 10:46:12;;;;;;;5.90;3.35;;;;;;;;;;5030229;28;20423;-67
2023/08/25 10:48:40;;;;;;;5.88;3.25;;;;;;;;;;5026224;28;20272;-67
2023/08/25 10:51:08;;;;;;;5.00;3.50;;;;;;;;;;5027326;28;20044;-67
2023/08/25 10:53:35;;;;;;;5.05;3.53;;;;;;;;;;5029221;28;20049;-66
2023/08/25 10:56:14;;;;;;;6.60;3.80;;;;;;;;;;5022551;28;20046;-66
2023/08/25 10:58:41;;;;;;;7.95;3.70;;;;;;;;;;5034306;28;20334;-66
2023/08/25 11:01:08;;;;;;;5.80;3.63;;;;;;;;;;5014741;28;20424;-67
2023/08/25 11:03:48;;;;;;;8.63;3.58;;;;;;;;;;5016934;28;20045;-67
2023/08/25 11:06:38;;;;;;;4.60;3.80;;;;;;;;;;5025379;28;20080;-67
2023/08/25 11:09:04;;;;;;;4.55;3.45;;;;;;;;;;5024207;28;20176;-66
2023/08/25 11:11:32;;;;;;;7.85;4.10;;;;;;;;;;5027308;28;20635;-67
2023/08/25 11:14:00;;;;;;;7.50;3.95;;;;;;;;;;5029435;28;20487;-65
2023/08/25 11:16:27;;;;;;;6.32;3.85;;;;;;;;;;5030378;28;20064;-65
2023/08/25 11:18:55;;;;;;;5.38;3.78;;;;;;;;;;5025087;28;20491;-64
2023/08/25 11:21:24;;;;;;;7.07;4.60;;;;;;;;;;5019530;28;20056;-65
2023/08/25 11:23:50;;;;;;;7.93;4.10;;;;;;;;;;5022690;28;20570;-67
2023/08/25 11:26:18;;;;;;;6.93;4.90;;;;;;;;;;5032551;28;20118;-63
2023/08/25 11:28:47;;;;;;;7.03;4.75;;;;;;;;;;5021664;28;20041;-67
2023/08/25 11:31:14;;;;;;;5.85;4.95;;;;;;;;;;5026869;28;20080;-68
2023/08/25 11:33:40;;;;;;;7.22;5.15;;;;;;;;;;5028998;28;20364;-64
2023/08/25 11:36:15;;;;;;;5.43;4.40;;;;;;;;;;5028097;28;20038;-64
2023/08/25 11:38:43;;;;;;;5.25;4.75;;;;;;;;;;5030095;28;20195;-65
2023/08/25 11:41:10;;;;;;;7.82;4.78;;;;;;;;;;5027303;28;20481;-64
2023/08/25 11:43:38;;;;;;;5.43;4.80;;;;;;;;;;5014294;28;20067;-67
2023/08/25 11:46:05;;;;;;;6.57;4.80;;;;;;;;;;5021524;28;20458;-65
2023/08/25 11:48:33;;;;;;;6.35;4.55;;;;;;;;;;5028717;28;20065;-67
2023/08/25 11:51:00;;;;;;;6.82;5.28;;;;;;;;;;5028086;28;20045;-67
2023/08/25 11:53:28;;;;;;;6.40;4.93;;;;;;;;;;5029728;28;20518;-65
2023/08/25 11:56:00;;;;;;;7.22;5.00;;;;;;;;;;5028284;28;20403;-64
2023/08/25 11:58:31;;;;;;;6.55;5.13;;;;;;;;;;5038223;28;20093;-67
2023/08/25 12:01:03;;;;;;;7.75;4.70;;;;;;;;;;5037896;28;20045;-65
2023/08/25 12:03:29;;;;;;;6.90;5.32;;;;;;;;;;5049790;28;20072;-65
2023/08/25 12:05:56;;;;;;;5.75;4.97;;;;;;;;;;5049210;28;20388;-64
2023/08/25 12:08:24;;;;;;;5.47;4.70;;;;;;;;;;5048951;28;20049;-65
2023/08/25 12:10:54;;;;;;;5.47;4.47;;;;;;;;;;5048846;28;20045;-65
2023/08/25 12:13:25;;;;;;;8.82;4.93;;;;;;;;;;5049157;28;20550;-65
2023/08/25 12:15:53;;;;;;;5.55;4.60;;;;;;;;;;5028510;28;20056;-65
2023/08/25 12:18:21;;;;;;;9.18;5.03;;;;;;;;;;5028484;28;20487;-64
2023/08/25 12:20:48;;;;;;;8.15;5.57;;;;;;;;;;5022307;28;20138;-65
2023/08/25 12:23:15;;;;;;;6.00;4.43;;;;;;;;;;5028270;28;20429;-66
2023/08/25 12:25:43;;;;;;;7.57;5.13;;;;;;;;;;5033425;28;20505;-65
2023/08/25 12:28:11;;;;;;;8.52;5.28;;;;;;;;;;5031308;28;20057;-66
2023/08/25 12:30:38;;;;;;;42.20;8.77;;;;;;;;;;5028061;28;20045;-66
2023/08/25 12:33:06;;;;;;;27.00;9.02;;;;;;;;;;5028561;28;20047;-68
2023/08/25 12:35:32;;;;;;;11.70;8.13;;;;;;;;;;5029467;28;20509;-67
2023/08/25 12:37:59;;;;;;;10.27;8.40;;;;;;;;;;5029252;28;20131;-67
2023/08/25 12:40:26;;;;;;;13.18;7.97;;;;;;;;;;5028424;28;20049;-66
2023/08/25 12:42:55;;;;;;;16.42;10.02;;;;;;;;;;5029852;28;20045;-67
2023/08/25 12:45:24;;;;;;;10.30;9.02;;;;;;;;;;5029229;28;20132;-67
2023/08/25 12:47:52;;;;;;;9.10;7.50;;;;;;;;;;5029641;28;20045;-67
2023/08/25 12:50:18;;;;;;;12.52;8.77;;;;;;;;;;5028280;28;20121;-67
2023/08/25 12:52:45;;;;;;;11.13;8.65;;;;;;;;;;5024981;28;20041;-67
2023/08/25 12:55:14;;;;;;;12.75;9.25;;;;;;;;;;5028614;28;20056;-66
2023/08/25 12:57:41;;;;;;;11.25;8.85;;;;;;;;;;5025090;28;20415;-66
2023/08/25 13:00:09;;;;;;;13.55;10.02;;;;;;;;;;5028426;28;20077;-67
2023/08/25 13:02:37;;;;;;;10.65;9.23;;;;;;;;;;5029707;28;20487;-66
2023/08/25 13:05:04;;;;;;;11.70;9.30;;;;;;;;;;5029745;28;20056;-66
2023/08/25 13:07:30;;;;;;;11.20;8.70;;;;;;;;;;5029280;28;20050;-66
2023/08/25 13:09:57;;;;;;;12.38;8.63;;;;;;;;;;5029084;28;20047;-66
2023/08/25 13:12:23;;;;;;;10.93;8.57;;;;;;;;;;5033248;28;20053;-66
2023/08/25 13:14:50;;;;;;;10.30;8.10;;;;;;;;;;5033630;28;20042;-66
2023/08/25 13:17:17;;;;;;;12.00;8.90;;;;;;;;;;5041230;28;20055;-66
2023/08/25 13:19:45;;;;;;;13.55;9.27;;;;;;;;;;5052588;28;20052;-66
2023/08/25 13:22:12;;;;;;;14.23;10.13;;;;;;;;;;5052789;28;20131;-67
2023/08/25 13:24:38;;;;;;;12.68;9.45;;;;;;;;;;5053857;28;20057;-67
2023/08/25 13:27:06;;;;;;;13.57;10.48;;;;;;;;;;5052846;28;20048;-67
2023/08/25 13:29:33;;;;;;;12.10;10.07;;;;;;;;;;5053076;28;20053;-66
2023/08/25 13:31:59;;;;;;;11.55;9.25;;;;;;;;;;5053667;28;20048;-67
2023/08/25 13:34:26;;;;;;;12.55;9.93;;;;;;;;;;5053083;28;20080;-67
2023/08/25 13:36:54;;;;;;;12.05;8.48;;;;;;;;;;5053604;28;20401;-66
2023/08/25 13:39:20;;;;;;;11.77;7.95;;;;;;;;;;5052817;28;20045;-67
2023/08/25 13:41:47;;;;;;;9.43;8.48;;;;;;;;;;5052741;28;20045;-67
2023/08/25 13:44:14;;;;;;;8.35;7.38;;;;;;;;;;5052850;28;20053;-67
2023/08/25 13:46:40;;;;;;;11.23;7.05;;;;;;;;;;5049685;28;20045;-66
2023/08/25 13:49:07;;;;;;;8.80;5.35;;;;;;;;;;5052378;28;20053;-67
2023/08/25 13:51:33;;;;;;;6.97;4.68;;;;;;;;;;5052893;28;20413;-67
2023/08/25 13:54:03;;;;;;;5.97;4.22;;;;;;;;;;5052458;28;20067;-67
2023/08/25 13:56:29;;;;;;;4.28;3.65;;;;;;;;;;5052561;28;20071;-67
2023/08/25 13:58:56;;;;;;;4.53;3.17;;;;;;;;;;5053056;28;20052;-67
2023/08/25 14:01:22;;;;;;;4.15;2.95;;;;;;;;;;5051712;28;20051;-67
2023/08/25 14:03:49;;;;;;;3.92;2.40;;;;;;;;;;5052762;28;20083;-67
2023/08/25 14:06:16;;;;;;;4.97;2.50;;;;;;;;;;5052058;28;20048;-66
2023/08/25 14:08:44;;;;;;;3.50;2.65;;;;;;;;;;5049165;28;20406;-67
2023/08/25 14:11:12;;;;;;;3.90;2.15;;;;;;;;;;5051126;28;20053;-67
2023/08/25 14:13:38;;;;;;;4.15;2.60;;;;;;;;;;5052307;28;20044;-67
2023/08/25 14:16:05;;;;;;;2.78;2.25;;;;;;;;;;5051485;28;20053;-67
2023/08/25 14:18:32;;;;;;;4.88;2.78;;;;;;;;;;5052256;28;20119;-67
2023/08/25 14:20:58;;;;;;;4.35;2.50;;;;;;;;;;5051181;28;20063;-66
2023/08/25 14:23:25;;;;;;;4.13;2.50;;;;;;;;;;5051499;28;20498;-67
2023/08/25 14:25:51;;;;;;;5.45;3.13;;;;;;;;;;5044423;28;20495;-66
2023/08/25 14:28:19;;;;;;;4.93;3.40;;;;;;;;;;5046551;28;20395;-67
2023/08/25 14:30:46;;;;;;;5.85;3.40;;;;;;;;;;5051257;28;20044;-66
2023/08/25 14:33:12;;;;;;;5.85;3.95;;;;;;;;;;5052024;28;20067;-66
2023/08/25 14:35:39;;;;;;;6.90;3.78;;;;;;;;;;5052251;28;20410;-66